Time;durP1;ratioP1;P1;durP2;ratioP2;P2;SDS_P1;SDS_P2;PMS_P1;PMS_P2;Temp;Humidity;BMP_temperature;BMP_pressure;BME280_temperature;BME280_humidity;BME280_pressure;Samples;Min_cycle;Max_cycle;Signal;HPM_P1;HPM_P2
2022/12/22 03:26:25;;;;;;;95.30;37.03;;;9.40;99.90;;;;;;5082430;28;20039;-71
2022/12/22 03:28:50;;;;;;;102.43;37.38;;;9.40;99.90;;;;;;5072085;28;20489;-71
2022/12/22 03:31:16;;;;;;;98.60;36.72;;;9.40;99.90;;;;;;5071713;28;20017;-71
2022/12/22 03:33:42;;;;;;;104.32;37.42;;;9.40;99.90;;;;;;5045406;28;20028;-71
2022/12/22 03:36:08;;;;;;;100.60;36.88;;;9.40;99.90;;;;;;5078469;28;20488;-71
2022/12/22 03:38:34;;;;;;;106.45;37.42;;;9.40;99.90;;;;;;5063399;28;20362;-69
2022/12/22 03:40:59;;;;;;;105.53;38.22;;;9.40;99.90;;;;;;5070935;28;20025;-69
2022/12/22 03:48:41;;;;;;;103.78;38.25;;;9.40;99.90;;;;;;5078183;28;20081;-69
2022/12/22 03:51:07;;;;;;;102.35;37.35;;;9.40;99.90;;;;;;5071673;28;20481;-69
2022/12/22 03:53:33;;;;;;;108.30;39.75;;;9.40;99.90;;;;;;5060595;28;20029;-70
2022/12/22 03:55:59;;;;;;;113.07;38.45;;;9.40;99.90;;;;;;5066188;28;20044;-71
2022/12/22 03:58:25;;;;;;;102.40;36.95;;;9.40;99.90;;;;;;5053724;28;20470;-70
2022/12/22 04:00:51;;;;;;;101.43;37.13;;;9.40;99.90;;;;;;5073842;28;20059;-70
2022/12/22 04:03:16;;;;;;;106.32;37.95;;;9.30;99.90;;;;;;5085557;28;20075;-70
2022/12/22 04:05:44;;;;;;;96.85;36.35;;;9.40;99.90;;;;;;5059562;28;20053;-70
2022/12/22 04:08:09;;;;;;;107.07;38.15;;;9.40;99.90;;;;;;5090658;28;20040;-70
2022/12/22 04:13:20;;;;;;;116.80;39.90;;;9.40;99.90;;;;;;5052145;28;20032;-70
2022/12/22 04:15:45;;;;;;;114.13;41.75;;;9.40;99.90;;;;;;5063994;28;20033;-70
2022/12/22 04:18:11;;;;;;;106.05;38.53;;;9.40;99.90;;;;;;5075523;28;20500;-70
2022/12/22 04:20:36;;;;;;;99.07;36.95;;;9.40;99.90;;;;;;5075103;28;20121;-70
2022/12/22 04:23:03;;;;;;;94.22;35.28;;;9.40;99.90;;;;;;5075334;28;20020;-70
2022/12/22 04:25:28;;;;;;;92.57;33.80;;;9.40;99.90;;;;;;5065700;28;20043;-70
2022/12/22 04:27:54;;;;;;;88.38;34.25;;;9.40;99.90;;;;;;5064633;28;20025;-70
2022/12/22 04:30:20;;;;;;;84.82;32.03;;;9.40;99.90;;;;;;5052913;28;20378;-70
2022/12/22 04:32:45;;;;;;;90.20;34.42;;;9.40;99.90;;;;;;5052241;28;20025;-70
2022/12/22 04:35:11;;;;;;;89.50;32.72;;;9.40;99.90;;;;;;5055511;28;20027;-70
2022/12/22 04:37:37;;;;;;;88.38;33.42;;;9.40;99.90;;;;;;5071849;28;20061;-70
2022/12/22 04:40:03;;;;;;;88.35;32.65;;;9.40;99.90;;;;;;5071718;28;20013;-70
2022/12/22 04:42:29;;;;;;;87.20;33.13;;;9.40;99.90;;;;;;5072041;28;20109;-71
2022/12/22 04:44:54;;;;;;;92.97;34.33;;;9.30;99.90;;;;;;5071690;28;20687;-70
2022/12/22 04:47:20;;;;;;;80.60;31.85;;;9.30;99.90;;;;;;5054382;28;20074;-70
2022/12/22 04:49:46;;;;;;;81.82;31.63;;;9.30;99.90;;;;;;5059340;28;20359;-70
2022/12/22 04:52:12;;;;;;;81.45;30.45;;;9.30;99.90;;;;;;5071050;28;20028;-70
2022/12/22 04:54:37;;;;;;;80.43;27.65;;;9.30;99.90;;;;;;5071564;28;20024;-70
2022/12/22 04:57:03;;;;;;;72.43;24.63;;;9.30;99.90;;;;;;5081717;28;20027;-70
2022/12/22 04:59:29;;;;;;;72.88;25.70;;;9.20;99.90;;;;;;5084783;28;20481;-70
2022/12/22 05:01:54;;;;;;;80.82;26.60;;;9.20;99.90;;;;;;5092219;28;20107;-70
2022/12/22 05:04:20;;;;;;;77.38;25.80;;;9.20;99.90;;;;;;5075984;28;20032;-70
2022/12/22 05:06:46;;;;;;;75.30;25.42;;;9.10;99.90;;;;;;5076579;28;20067;-71
2022/12/22 05:09:12;;;;;;;83.30;26.30;;;9.10;99.90;;;;;;5061488;28;20108;-71
2022/12/22 05:11:38;;;;;;;80.85;23.42;;;9.10;99.90;;;;;;5066565;28;20493;-71
2022/12/22 05:14:04;;;;;;;82.90;24.63;;;9.10;99.90;;;;;;5057527;28;20029;-71
2022/12/22 05:16:29;;;;;;;88.65;24.55;;;9.10;99.90;;;;;;5068342;28;20355;-71
2022/12/22 05:18:55;;;;;;;99.05;25.25;;;9.10;99.90;;;;;;5078064;28;20028;-71
2022/12/22 05:21:22;;;;;;;106.30;24.95;;;9.00;99.90;;;;;;5054812;28;20032;-71
2022/12/22 05:23:48;;;;;;;105.78;24.75;;;9.00;99.90;;;;;;5073414;28;20887;-71
2022/12/22 05:26:15;;;;;;;101.22;24.45;;;9.00;99.90;;;;;;5064679;28;20096;-72
2022/12/22 05:28:43;;;;;;;96.30;24.25;;;9.00;99.90;;;;;;5069442;28;20020;-71
2022/12/22 05:31:21;;;;;;;102.68;25.58;;;9.00;99.90;;;;;;5067927;28;20481;-71
2022/12/22 05:33:48;;;;;;;115.68;26.40;;;9.00;99.90;;;;;;5077715;28;20028;-71
2022/12/22 05:36:14;;;;;;;110.80;25.40;;;8.90;99.90;;;;;;5078626;28;20080;-71
2022/12/22 05:38:40;;;;;;;86.85;23.90;;;8.90;99.90;;;;;;5080845;28;20012;-72
2022/12/22 05:41:09;;;;;;;103.15;25.55;;;8.90;99.90;;;;;;5081739;28;20093;-71
2022/12/22 05:43:36;;;;;;;91.45;24.05;;;8.90;99.90;;;;;;5051027;28;20031;-72
2022/12/22 05:46:07;;;;;;;86.65;25.23;;;8.90;99.90;;;;;;5073740;28;20044;-72
2022/12/22 05:48:33;;;;;;;86.38;25.08;;;8.90;99.90;;;;;;5069085;28;20069;-72
2022/12/22 05:50:59;;;;;;;87.40;25.70;;;8.90;99.90;;;;;;5070847;28;20036;-72
2022/12/22 05:53:24;;;;;;;87.13;24.00;;;8.90;99.90;;;;;;5067073;28;20404;-72
2022/12/22 05:55:51;;;;;;;78.90;24.10;;;8.80;99.90;;;;;;5075260;28;20017;-72
2022/12/22 05:58:17;;;;;;;76.25;25.13;;;8.80;99.90;;;;;;5075952;28;20017;-70
2022/12/22 06:00:43;;;;;;;80.53;24.52;;;8.80;99.90;;;;;;5072941;28;20119;-70
2022/12/22 06:03:08;;;;;;;72.65;24.77;;;8.80;99.90;;;;;;5083130;28;20070;-70
2022/12/22 06:05:34;;;;;;;65.13;23.10;;;8.70;99.90;;;;;;5084463;28;20044;-70
2022/12/22 06:08:01;;;;;;;67.32;23.20;;;8.70;99.90;;;;;;5059711;28;20044;-71
2022/12/22 06:10:27;;;;;;;66.65;23.60;;;8.70;99.90;;;;;;5070258;28;20530;-70
2022/12/22 06:12:52;;;;;;;60.47;22.50;;;8.60;99.90;;;;;;5077722;28;20362;-70
2022/12/22 06:15:18;;;;;;;60.03;22.23;;;8.60;99.90;;;;;;5083414;28;20020;-70
2022/12/22 06:17:44;;;;;;;63.97;22.80;;;8.60;99.90;;;;;;5082245;28;20381;-70
2022/12/22 06:20:11;;;;;;;57.40;21.77;;;8.50;99.90;;;;;;5063402;28;20031;-70
2022/12/22 06:22:37;;;;;;;56.85;20.48;;;8.40;99.90;;;;;;5072987;28;20094;-70
2022/12/22 06:25:03;;;;;;;58.00;20.52;;;8.40;99.90;;;;;;5068505;28;20017;-70
2022/12/22 06:27:28;;;;;;;52.53;19.90;;;8.40;99.90;;;;;;5070804;28;20428;-71
2022/12/22 06:29:54;;;;;;;55.65;20.05;;;8.40;99.90;;;;;;5048022;28;20033;-70
2022/12/22 06:32:20;;;;;;;60.92;21.17;;;8.40;99.90;;;;;;5053382;28;20455;-70
2022/12/22 06:34:45;;;;;;;52.63;19.50;;;8.30;99.90;;;;;;5070067;28;20036;-69
2022/12/22 06:37:11;;;;;;;55.33;18.23;;;8.30;99.90;;;;;;5060817;28;20090;-70
2022/12/22 06:39:36;;;;;;;59.03;17.98;;;8.30;99.90;;;;;;5066372;28;20037;-70
2022/12/22 06:44:49;;;;;;;43.75;16.17;;;8.20;99.90;;;;;;5057858;28;20036;-72
2022/12/22 06:47:15;;;;;;;52.13;17.95;;;8.20;99.90;;;;;;5064271;28;20022;-72
2022/12/22 06:49:41;;;;;;;50.63;16.42;;;8.20;99.90;;;;;;5061027;28;20537;-71
2022/12/22 06:52:07;;;;;;;50.17;17.08;;;8.20;99.90;;;;;;5059748;28;20234;-71
2022/12/22 06:54:33;;;;;;;43.75;15.77;;;8.20;99.90;;;;;;5061605;28;20037;-71
2022/12/22 06:56:59;;;;;;;42.58;15.13;;;8.10;99.90;;;;;;5059967;28;20032;-71
2022/12/22 06:59:25;;;;;;;45.60;15.88;;;8.10;99.90;;;;;;5059903;28;20021;-70
2022/12/22 07:01:50;;;;;;;43.42;14.73;;;8.10;99.90;;;;;;5056999;28;20032;-71
2022/12/22 07:04:19;;;;;;;38.72;14.85;;;8.10;99.90;;;;;;5062002;28;20047;-70
2022/12/22 07:06:46;;;;;;;45.10;14.63;;;8.00;99.90;;;;;;5072891;28;20104;-69
2022/12/22 07:09:11;;;;;;;36.20;14.45;;;8.00;99.90;;;;;;5067458;28;20509;-71
2022/12/22 07:11:37;;;;;;;36.25;14.63;;;8.00;99.90;;;;;;5064858;28;20048;-69
2022/12/22 07:14:02;;;;;;;43.97;15.20;;;8.00;99.90;;;;;;5065847;28;20047;-70
2022/12/22 07:16:28;;;;;;;41.72;14.23;;;7.90;99.90;;;;;;5062180;28;20052;-71
2022/12/22 07:18:55;;;;;;;35.90;14.00;;;7.90;99.90;;;;;;5058932;28;20414;-71
2022/12/22 07:21:20;;;;;;;38.58;14.27;;;7.80;99.90;;;;;;5060874;28;20046;-69
2022/12/22 07:23:46;;;;;;;39.70;14.02;;;7.80;99.90;;;;;;5066146;28;20031;-69
2022/12/22 07:26:13;;;;;;;40.63;14.32;;;7.80;99.90;;;;;;5066642;28;20013;-69
2022/12/22 07:28:40;;;;;;;41.65;14.93;;;7.80;99.90;;;;;;5070784;28;20089;-69
2022/12/22 07:31:07;;;;;;;36.55;13.02;;;7.70;99.90;;;;;;5071039;28;20365;-69
2022/12/22 07:33:32;;;;;;;38.85;13.27;;;7.70;99.90;;;;;;5067573;28;20020;-70
2022/12/22 07:36:04;;;;;;;40.53;13.40;;;7.70;99.90;;;;;;5067700;28;20087;-70
2022/12/22 07:38:38;;;;;;;34.88;12.88;;;7.60;99.90;;;;;;5060168;28;20029;-71
2022/12/22 07:42:43;;;;;;;29.33;12.48;;;7.60;99.90;;;;;;5064536;28;20029;-70
2022/12/22 07:43:55;;;;;;;26.63;12.07;;;7.60;99.90;;;;;;5068357;28;20066;-70
2022/12/22 07:46:23;;;;;;;29.35;13.07;;;7.50;99.90;;;;;;5062445;28;20386;-70
2022/12/22 07:51:39;;;;;;;34.47;14.25;;;7.50;99.90;;;;;;5069004;28;20536;-69
2022/12/22 07:54:06;;;;;;;31.25;15.18;;;7.40;99.90;;;;;;5066636;28;20039;-69
2022/12/22 07:56:32;;;;;;;32.95;14.73;;;7.40;99.90;;;;;;5063469;28;20038;-70
2022/12/22 07:58:57;;;;;;;38.50;16.30;;;7.40;99.90;;;;;;5063980;28;20029;-70
2022/12/22 08:01:24;;;;;;;34.25;15.40;;;7.40;99.90;;;;;;5069109;28;20039;-70
2022/12/22 08:03:50;;;;;;;35.92;16.63;;;7.30;99.90;;;;;;5059982;28;20036;-69
2022/12/22 08:06:16;;;;;;;34.78;17.67;;;7.30;99.90;;;;;;5068742;28;20066;-70
2022/12/22 08:08:42;;;;;;;35.72;16.95;;;7.30;99.90;;;;;;5063863;28;20052;-69
2022/12/22 08:11:08;;;;;;;34.47;15.90;;;7.30;99.90;;;;;;5064604;28;20032;-69
2022/12/22 08:13:34;;;;;;;32.70;15.15;;;7.20;99.90;;;;;;5064922;28;20020;-70
2022/12/22 08:16:04;;;;;;;34.35;15.20;;;7.20;99.90;;;;;;5062073;28;20024;-70
2022/12/22 08:18:31;;;;;;;31.02;13.00;;;7.20;99.90;;;;;;5072044;28;20062;-70
2022/12/22 08:20:57;;;;;;;28.15;13.05;;;7.20;99.90;;;;;;5069143;28;20036;-70
2022/12/22 08:23:22;;;;;;;26.58;12.38;;;7.20;99.90;;;;;;5068253;28;20032;-70
2022/12/22 08:26:10;;;;;;;26.58;11.93;;;7.10;99.90;;;;;;5071567;28;20027;-69
2022/12/22 08:29:02;;;;;;;24.17;10.80;;;7.10;99.90;;;;;;5066712;28;20040;-70
2022/12/22 08:31:29;;;;;;;22.75;10.75;;;7.10;99.90;;;;;;5070075;28;20078;-70
2022/12/22 08:33:57;;;;;;;28.67;11.18;;;7.10;99.90;;;;;;5075137;28;20024;-70
2022/12/22 08:36:23;;;;;;;25.38;11.38;;;7.10;99.90;;;;;;5071303;28;20032;-69
2022/12/22 08:38:49;;;;;;;26.85;11.38;;;7.10;99.90;;;;;;5067571;28;20098;-70
2022/12/22 08:41:48;;;;;;;21.90;11.48;;;7.10;99.90;;;;;;5054302;28;20029;-70
2022/12/22 08:44:01;;;;;;;25.83;11.27;;;7.10;99.90;;;;;;5074647;28;20390;-70
2022/12/22 08:46:27;;;;;;;19.90;11.23;;;7.10;99.90;;;;;;5074215;28;20082;-70
2022/12/22 08:48:52;;;;;;;19.75;11.52;;;7.10;99.90;;;;;;5059008;28;20032;-69
2022/12/22 08:51:18;;;;;;;27.23;12.52;;;7.10;99.90;;;;;;5055348;28;20025;-70
2022/12/22 08:53:44;;;;;;;30.65;14.30;;;7.10;99.90;;;;;;5063807;28;20043;-70
2022/12/22 08:56:09;;;;;;;28.67;13.80;;;7.20;99.90;;;;;;5055257;28;20103;-69
2022/12/22 08:58:35;;;;;;;28.10;13.32;;;7.20;99.90;;;;;;5057568;28;20033;-70
2022/12/22 09:01:00;;;;;;;26.77;13.85;;;7.20;99.90;;;;;;5062063;28;20033;-70
2022/12/22 09:03:26;;;;;;;27.52;13.57;;;7.20;99.90;;;;;;5071392;28;20512;-70
2022/12/22 09:05:58;;;;;;;25.17;13.13;;;7.20;99.90;;;;;;5071566;28;20097;-69
2022/12/22 09:08:24;;;;;;;28.70;13.52;;;7.20;99.90;;;;;;5067041;28;20086;-70
2022/12/22 09:10:49;;;;;;;25.88;14.65;;;7.20;99.90;;;;;;5061374;28;20033;-70
2022/12/22 09:13:16;;;;;;;33.17;15.90;;;7.20;99.90;;;;;;5061848;28;20017;-70
2022/12/22 09:15:42;;;;;;;29.38;15.10;;;7.20;99.90;;;;;;5073822;28;20107;-70
2022/12/22 09:18:07;;;;;;;23.33;15.43;;;7.20;99.90;;;;;;5057489;28;20096;-70
2022/12/22 09:20:33;;;;;;;30.83;16.73;;;7.30;99.90;;;;;;5062507;28;20029;-69
2022/12/22 09:22:59;;;;;;;37.20;17.42;;;7.30;99.90;;;;;;5054216;28;20336;-70
2022/12/22 09:25:24;;;;;;;31.08;16.35;;;7.30;99.90;;;;;;5069401;28;20051;-70
2022/12/22 09:27:50;;;;;;;33.70;16.88;;;7.30;99.90;;;;;;5065045;28;20382;-69
2022/12/22 09:30:16;;;;;;;30.90;16.42;;;7.40;99.90;;;;;;5071949;28;20017;-69
2022/12/22 09:32:41;;;;;;;34.03;16.50;;;7.40;99.90;;;;;;5074654;28;20025;-70
2022/12/22 09:35:07;;;;;;;32.17;16.83;;;7.50;99.90;;;;;;5069274;28;20025;-69
2022/12/22 09:37:33;;;;;;;37.63;16.63;;;7.50;99.90;;;;;;5062694;28;20389;-69
2022/12/22 09:39:58;;;;;;;31.85;16.52;;;7.60;99.90;;;;;;5056791;28;20024;-70
2022/12/22 09:42:24;;;;;;;32.95;15.25;;;7.60;99.90;;;;;;5075308;28;20532;-70
2022/12/22 09:44:50;;;;;;;36.28;14.43;;;7.70;99.90;;;;;;5074524;28;20021;-70
2022/12/22 09:47:28;;;;;;;29.92;14.13;;;7.70;99.90;;;;;;5070641;28;20025;-70
2022/12/22 09:49:56;;;;;;;29.80;13.05;;;7.80;99.90;;;;;;5061624;28;20028;-70
2022/12/22 09:52:28;;;;;;;27.67;12.55;;;7.90;99.90;;;;;;5073219;28;20035;-69
2022/12/22 09:54:55;;;;;;;30.48;12.13;;;7.90;99.90;;;;;;5070944;28;20505;-69
2022/12/22 09:57:24;;;;;;;23.65;10.35;;;8.00;99.90;;;;;;5069023;28;20032;-70
2022/12/22 09:59:50;;;;;;;26.23;10.18;;;8.10;99.90;;;;;;5070706;28;20024;-70
2022/12/22 10:02:24;;;;;;;25.75;8.23;;;8.10;99.90;;;;;;5072841;28;20037;-69
2022/12/22 10:05:05;;;;;;;20.45;6.97;;;8.20;99.90;;;;;;5069044;28;20063;-69
2022/12/22 10:07:32;;;;;;;21.02;7.63;;;8.30;99.90;;;;;;5071262;28;20033;-70
2022/12/22 10:10:24;;;;;;;25.00;7.78;;;8.40;99.90;;;;;;5074029;28;20082;-70
2022/12/22 10:12:51;;;;;;;22.17;9.05;;;8.50;99.90;;;;;;5058722;28;20032;-70
2022/12/22 10:15:17;;;;;;;25.20;9.02;;;8.50;99.90;;;;;;5074783;28;20031;-70
2022/12/22 10:17:42;;;;;;;22.83;9.60;;;8.60;99.90;;;;;;5069752;28;20080;-70
2022/12/22 10:20:20;;;;;;;22.27;9.98;;;8.70;99.90;;;;;;5072496;28;20023;-70
2022/12/22 10:22:57;;;;;;;21.27;10.15;;;8.80;99.90;;;;;;5076295;28;20032;-69
2022/12/22 10:25:39;;;;;;;27.42;10.07;;;8.90;99.90;;;;;;5068490;28;20032;-69
2022/12/22 10:28:21;;;;;;;21.52;9.88;;;8.90;99.90;;;;;;5080709;28;20032;-69
2022/12/22 10:30:46;;;;;;;22.50;9.20;;;9.00;99.90;;;;;;5081528;28;20091;-69
2022/12/22 10:33:15;;;;;;;18.73;8.75;;;9.00;99.90;;;;;;5077802;28;20044;-69
2022/12/22 10:35:46;;;;;;;26.75;8.15;;;9.00;99.90;;;;;;5065539;28;20032;-69
2022/12/22 10:38:39;;;;;;;15.40;8.50;;;9.10;99.90;;;;;;5073634;28;20025;-68
2022/12/22 10:41:11;;;;;;;17.83;8.35;;;9.10;99.90;;;;;;5063745;28;20036;-68
2022/12/22 10:43:54;;;;;;;18.52;7.57;;;9.20;99.90;;;;;;5074265;28;20032;-68
2022/12/22 10:46:34;;;;;;;18.45;7.22;;;9.20;99.90;;;;;;5078549;28;20035;-69
2022/12/22 10:49:23;;;;;;;18.70;6.95;;;9.30;99.90;;;;;;5083547;28;20021;-69
2022/12/22 10:52:21;;;;;;;17.67;6.72;;;9.30;99.90;;;;;;5071634;28;20039;-70
2022/12/22 10:54:47;;;;;;;11.93;8.02;;;9.40;99.90;;;;;;5064615;28;20091;-70
2022/12/22 10:57:13;;;;;;;21.40;9.82;;;9.30;99.90;;;;;;5073644;28;20012;-69
2022/12/22 11:00:21;;;;;;;26.25;12.98;;;9.30;99.90;;;;;;5085970;28;20066;-70
2022/12/22 11:02:51;;;;;;;25.00;13.35;;;9.20;99.90;;;;;;5057642;28;20028;-69
2022/12/22 11:05:17;;;;;;;28.90;14.95;;;9.00;99.90;;;;;;5086041;28;20075;-70
2022/12/22 11:07:46;;;;;;;31.60;15.73;;;8.80;99.90;;;;;;5076834;28;20059;-70
2022/12/22 11:10:14;;;;;;;30.70;15.75;;;8.60;99.90;;;;;;5084132;28;20080;-69
2022/12/22 11:13:01;;;;;;;32.05;16.17;;;8.50;99.90;;;;;;5069483;28;20762;-69
2022/12/22 11:15:51;;;;;;;32.25;16.02;;;8.40;99.90;;;;;;5076786;28;20039;-69
2022/12/22 11:18:31;;;;;;;31.30;14.93;;;8.30;99.90;;;;;;5078521;28;20107;-70
2022/12/22 11:21:19;;;;;;;30.50;14.00;;;8.10;99.90;;;;;;5074877;28;20062;-70
2022/12/22 11:24:06;;;;;;;30.60;13.40;;;8.00;99.90;;;;;;5052239;28;20024;-69
2022/12/22 11:26:40;;;;;;;31.77;13.63;;;7.90;99.90;;;;;;5059495;28;20044;-69
2022/12/22 11:29:34;;;;;;;33.88;13.80;;;7.80;99.90;;;;;;5086186;28;20061;-70
2022/12/22 11:32:43;;;;;;;38.05;14.80;;;7.80;99.90;;;;;;5082812;28;20478;-69
2022/12/22 11:35:16;;;;;;;36.90;15.07;;;7.70;99.90;;;;;;4982551;28;20031;-69
2022/12/22 11:37:48;;;;;;;39.42;15.02;;;7.70;99.90;;;;;;4983785;28;20031;-69
2022/12/22 11:40:29;;;;;;;40.03;14.93;;;7.70;99.90;;;;;;4983344;28;20066;-69
2022/12/22 11:43:05;;;;;;;39.58;14.07;;;7.70;99.90;;;;;;4983330;28;20030;-69
2022/12/22 11:45:49;;;;;;;39.38;14.50;;;7.70;99.90;;;;;;4984601;28;20039;-69
2022/12/22 11:49:05;;;;;;;42.40;15.45;;;7.70;99.90;;;;;;4985165;28;20031;-70
2022/12/22 11:51:56;;;;;;;37.40;14.45;;;7.70;99.90;;;;;;4918154;29;20055;-69
2022/12/22 11:54:33;;;;;;;40.85;17.02;;;7.70;99.90;;;;;;4927184;29;20063;-70
2022/12/22 11:57:09;;;;;;;54.05;18.58;;;7.70;99.90;;;;;;4924661;29;20047;-70
2022/12/22 11:59:51;;;;;;;52.95;20.85;;;7.80;99.90;;;;;;4926619;29;20048;-70
2022/12/22 12:02:35;;;;;;;50.38;20.63;;;7.80;99.90;;;;;;4918865;29;20048;-69
2022/12/22 12:05:22;;;;;;;54.53;21.55;;;7.80;99.90;;;;;;4933968;28;20047;-69
2022/12/22 12:08:10;;;;;;;50.75;21.63;;;7.80;99.90;;;;;;4970925;28;20035;-69
2022/12/22 12:11:05;;;;;;;47.15;19.77;;;7.80;99.90;;;;;;4985568;28;20061;-69
2022/12/22 12:13:55;;;;;;;48.88;21.63;;;7.90;99.90;;;;;;4957639;29;20048;-69
2022/12/22 12:16:43;;;;;;;48.05;20.40;;;7.90;99.90;;;;;;4945381;29;20039;-71
2022/12/22 12:19:49;;;;;;;48.90;21.77;;;7.90;99.90;;;;;;4936249;29;20044;-69
2022/12/22 12:22:45;;;;;;;53.08;23.38;;;7.90;99.90;;;;;;4945135;29;20039;-69
2022/12/22 12:25:20;;;;;;;53.75;22.70;;;8.00;99.90;;;;;;4946579;29;20051;-69
2022/12/22 12:28:04;;;;;;;;;;;8.00;99.90;;;;;;5024274;28;20077;-70
2022/12/22 12:30:40;;;;;;;57.38;24.25;;;8.00;99.90;;;;;;5060666;28;19991;-69
2022/12/22 12:33:10;;;;;;;63.35;26.48;;;8.00;99.90;;;;;;5052140;28;20053;-70
2022/12/22 12:35:42;;;;;;;63.97;26.52;;;8.10;99.90;;;;;;5044417;28;20048;-69
2022/12/22 12:38:45;;;;;;;59.58;25.90;;;8.10;99.90;;;;;;5033705;28;20099;-69
2022/12/22 12:41:30;;;;;;;55.08;25.73;;;8.20;99.90;;;;;;5037828;28;20048;-69
2022/12/22 12:43:57;;;;;;;55.83;25.08;;;8.20;99.90;;;;;;5028740;28;20691;-69
2022/12/22 12:46:44;;;;;;;55.67;25.63;;;8.20;99.90;;;;;;5048372;28;20033;-69
2022/12/22 12:49:35;;;;;;;55.92;27.27;;;8.30;99.90;;;;;;5027214;28;20105;-69
2022/12/22 12:52:01;;;;;;;65.95;26.95;;;8.30;99.90;;;;;;5084325;28;20085;-69
2022/12/22 12:54:39;;;;;;;58.88;27.00;;;8.30;99.90;;;;;;5086779;28;20111;-69
2022/12/22 12:57:24;;;;;;;60.80;28.55;;;8.30;99.90;;;;;;5074985;28;20031;-70
2022/12/22 12:59:52;;;;;;;58.55;27.35;;;8.40;99.90;;;;;;5087577;28;20056;-69
2022/12/22 13:02:27;;;;;;;49.88;26.80;;;8.30;99.90;;;;;;5069851;28;20021;-69
2022/12/22 13:05:01;;;;;;;52.30;26.80;;;8.40;99.90;;;;;;5069499;28;20041;-69
2022/12/22 13:08:06;;;;;;;59.17;25.85;;;8.40;99.90;;;;;;5087286;28;20025;-69
2022/12/22 13:10:52;;;;;;;54.60;26.10;;;8.40;99.90;;;;;;5081402;28;20031;-69
2022/12/22 13:13:24;;;;;;;51.55;25.98;;;8.50;99.90;;;;;;5068240;28;20170;-69
2022/12/22 13:15:49;;;;;;;56.22;26.48;;;8.50;99.90;;;;;;5083177;28;20139;-69
2022/12/22 13:18:24;;;;;;;52.92;25.85;;;8.50;99.90;;;;;;5073217;28;20020;-69
2022/12/22 13:20:58;;;;;;;53.75;24.98;;;8.50;99.90;;;;;;5088309;28;20032;-69
2022/12/22 13:23:35;;;;;;;55.17;27.20;;;8.60;99.90;;;;;;5067371;28;20059;-68
2022/12/22 13:26:34;;;;;;;54.03;26.08;;;8.60;99.90;;;;;;5067842;28;20075;-70
2022/12/22 13:29:21;;;;;;;50.78;25.58;;;8.70;99.90;;;;;;5073630;28;20029;-69
2022/12/22 13:32:24;;;;;;;49.55;26.02;;;8.70;99.90;;;;;;5089153;28;20052;-69
2022/12/22 13:34:52;;;;;;;47.70;25.17;;;8.70;99.90;;;;;;4987259;28;20086;-69
2022/12/22 13:37:24;;;;;;;57.10;25.33;;;8.80;99.90;;;;;;4974503;28;20085;-69
2022/12/22 13:40:12;;;;;;;53.08;25.98;;;8.80;99.90;;;;;;4980193;28;20499;-69
2022/12/22 13:42:47;;;;;;;52.67;27.05;;;8.90;99.90;;;;;;4985552;28;20136;-70
2022/12/22 13:45:18;;;;;;;;;;;8.90;99.90;;;;;;4989942;28;20045;-69
2022/12/22 13:47:45;;;;;;;57.50;27.20;;;8.90;99.90;;;;;;4992230;28;19914;-69
2022/12/22 13:50:33;;;;;;;56.20;27.30;;;8.90;99.90;;;;;;4990774;28;20062;-70
2022/12/22 13:53:01;;;;;;;59.95;29.17;;;9.00;99.90;;;;;;4999417;28;20038;-73
2022/12/22 13:55:29;;;;;;;53.28;28.10;;;8.90;99.90;;;;;;4994141;28;20136;-72
2022/12/22 13:58:01;;;;;;;51.50;26.63;;;9.00;99.90;;;;;;4993131;28;20054;-71
2022/12/22 14:00:28;;;;;;;54.33;26.65;;;9.00;99.90;;;;;;4994897;28;20042;-69
2022/12/22 14:02:54;;;;;;;51.58;27.20;;;8.90;99.90;;;;;;4980248;28;20122;-68
2022/12/22 14:05:20;;;;;;;55.65;28.08;;;9.00;99.90;;;;;;4977698;28;20039;-69
2022/12/22 14:08:04;;;;;;;52.75;27.40;;;9.00;99.90;;;;;;4995719;28;20067;-70
2022/12/22 14:10:34;;;;;;;53.35;27.63;;;8.90;99.90;;;;;;5092887;28;20072;-72
2022/12/22 14:13:05;;;;;;;59.25;28.65;;;8.90;99.90;;;;;;5095920;28;20207;-72
2022/12/22 14:15:31;;;;;;;59.83;29.25;;;8.90;99.90;;;;;;5078189;28;20029;-72
2022/12/22 14:17:57;;;;;;;56.60;28.60;;;8.90;99.90;;;;;;5084553;28;20244;-72
2022/12/22 14:20:24;;;;;;;60.33;29.52;;;8.90;99.90;;;;;;5086039;28;20052;-72
2022/12/22 14:23:05;;;;;;;61.42;29.02;;;8.90;99.90;;;;;;5097973;28;20032;-72
2022/12/22 14:25:35;;;;;;;62.05;29.83;;;8.90;99.90;;;;;;5083960;28;20465;-72
2022/12/22 14:28:04;;;;;;;58.85;29.80;;;8.90;99.90;;;;;;5084720;28;20472;-71
2022/12/22 14:30:35;;;;;;;63.70;29.67;;;8.90;99.90;;;;;;5087386;28;20454;-70
2022/12/22 14:33:26;;;;;;;57.03;29.20;;;8.90;99.90;;;;;;5079605;28;20054;-70
2022/12/22 14:36:03;;;;;;;60.60;29.30;;;8.90;99.90;;;;;;5079418;28;20032;-70
2022/12/22 14:38:42;;;;;;;57.08;29.83;;;8.90;99.90;;;;;;5073189;28;20059;-71
2022/12/22 14:44:04;;;;;;;60.53;30.80;;;8.90;99.90;;;;;;5076592;28;20035;-71
2022/12/22 14:46:30;;;;;;;61.83;31.70;;;8.90;99.90;;;;;;5081930;28;20031;-71
2022/12/22 14:48:58;;;;;;;60.53;31.00;;;8.90;99.90;;;;;;5081817;28;20035;-71
2022/12/22 14:51:26;;;;;;;66.40;31.17;;;8.90;99.90;;;;;;5084216;28;21254;-70
2022/12/22 14:53:58;;;;;;;62.83;30.67;;;8.90;99.90;;;;;;5077655;28;20075;-72
2022/12/22 14:56:25;;;;;;;61.67;31.60;;;8.90;99.90;;;;;;5081854;28;20027;-71
2022/12/22 14:59:08;;;;;;;59.13;30.77;;;8.90;99.90;;;;;;5080517;28;20035;-70
2022/12/22 15:01:34;;;;;;;61.30;31.45;;;8.90;99.90;;;;;;5066273;28;20433;-69
2022/12/22 15:04:03;;;;;;;65.68;33.15;;;8.90;99.90;;;;;;5067965;28;20023;-70
2022/12/22 15:06:28;;;;;;;63.33;32.15;;;8.90;99.90;;;;;;5064124;28;20020;-70
2022/12/22 15:09:10;;;;;;;62.13;31.73;;;8.90;99.90;;;;;;5078344;28;20024;-69
2022/12/22 15:12:10;;;;;;;63.90;32.63;;;8.90;99.90;;;;;;5065501;28;20029;-69
2022/12/22 15:14:36;;;;;;;59.22;31.40;;;8.90;99.90;;;;;;5051697;28;20152;-70
2022/12/22 15:17:03;;;;;;;57.78;30.60;;;8.90;99.90;;;;;;5069400;28;20111;-70
2022/12/22 15:19:32;;;;;;;57.97;30.58;;;8.90;99.90;;;;;;5038396;28;20025;-70
2022/12/22 15:21:58;;;;;;;61.70;32.00;;;8.90;99.90;;;;;;5052077;28;20036;-69
2022/12/22 15:24:24;;;;;;;56.38;30.35;;;8.80;99.90;;;;;;5070010;28;20021;-70
2022/12/22 15:26:50;;;;;;;59.42;30.80;;;8.90;99.90;;;;;;5051493;28;20020;-70
2022/12/22 15:29:15;;;;;;;54.63;28.50;;;8.90;99.90;;;;;;5060551;28;20429;-70
2022/12/22 15:31:42;;;;;;;55.70;28.80;;;8.90;99.90;;;;;;5067717;28;20108;-70
2022/12/22 15:34:21;;;;;;;51.78;28.50;;;8.90;99.90;;;;;;5056719;28;20349;-70
2022/12/22 15:36:46;;;;;;;49.58;26.17;;;8.90;99.90;;;;;;5062876;28;20330;-70
2022/12/22 15:39:16;;;;;;;48.60;26.33;;;8.90;99.90;;;;;;5056539;28;20406;-70
2022/12/22 15:41:43;;;;;;;51.10;26.27;;;8.90;99.90;;;;;;5064417;28;20079;-70
2022/12/22 15:44:10;;;;;;;45.25;24.80;;;8.90;99.90;;;;;;5059796;28;20029;-70
2022/12/22 15:46:36;;;;;;;47.95;24.33;;;8.90;99.90;;;;;;5056348;28;20394;-70
2022/12/22 15:49:02;;;;;;;71.47;36.72;;;8.90;99.90;;;;;;5066365;28;20031;-71
2022/12/22 15:51:30;;;;;;;63.65;32.55;;;9.00;99.90;;;;;;5065869;28;20020;-73
2022/12/22 15:53:58;;;;;;;45.25;25.63;;;9.00;99.90;;;;;;5050112;28;20029;-70
2022/12/22 15:56:26;;;;;;;43.90;25.35;;;9.00;99.90;;;;;;5069634;28;20462;-70
2022/12/22 15:58:52;;;;;;;47.67;24.73;;;9.00;99.90;;;;;;5062927;28;20099;-70
2022/12/22 16:01:17;;;;;;;91.07;51.90;;;9.00;99.90;;;;;;5065639;28;20144;-71
2022/12/22 16:03:43;;;;;;;97.18;55.83;;;9.00;99.90;;;;;;5062348;28;20036;-69
2022/12/22 16:06:14;;;;;;;62.70;31.92;;;9.00;99.90;;;;;;5071663;28;20052;-69
2022/12/22 16:08:44;;;;;;;50.00;26.67;;;9.00;99.90;;;;;;5078419;28;20028;-71
2022/12/22 16:11:09;;;;;;;45.42;25.23;;;9.00;99.90;;;;;;5052453;28;20084;-70
2022/12/22 16:13:36;;;;;;;47.05;25.33;;;9.00;99.90;;;;;;5061204;28;20052;-69
2022/12/22 16:16:02;;;;;;;46.70;25.90;;;9.00;99.90;;;;;;5078969;28;20020;-69
2022/12/22 16:18:28;;;;;;;49.30;26.48;;;9.00;99.90;;;;;;5070912;28;20025;-69
2022/12/22 16:20:56;;;;;;;48.88;26.23;;;9.10;99.90;;;;;;5066734;28;20111;-70
2022/12/22 16:23:25;;;;;;;49.90;28.00;;;9.10;99.90;;;;;;5080061;28;20078;-69
2022/12/22 16:25:52;;;;;;;52.00;28.90;;;9.10;99.90;;;;;;5079609;28;20039;-69
2022/12/22 16:28:20;;;;;;;51.45;28.92;;;9.10;99.90;;;;;;5081450;28;20012;-69
2022/12/22 16:30:46;;;;;;;56.08;30.00;;;9.10;99.90;;;;;;5089389;28;20059;-69
2022/12/22 16:33:13;;;;;;;57.63;32.10;;;9.10;99.90;;;;;;5082121;28;20025;-72
2022/12/22 16:35:39;;;;;;;56.10;30.83;;;9.10;99.90;;;;;;5081401;28;20021;-70
2022/12/22 16:38:05;;;;;;;56.33;31.08;;;9.10;99.90;;;;;;5089749;28;20023;-69
2022/12/22 16:40:33;;;;;;;56.92;30.83;;;9.10;99.90;;;;;;5092554;28;20012;-69